Whale Point, California Weather observations

Data are for observation ending at time listed.
 Day   Time    Ave.   Ave.  Ave.  Vector   Max.   Stn.    Total    Solar   Ave.  
  of    of     Air    Rel.  Wind   Wind    Wind   Baro.  Precip.   Rad.    Soil  
Year   Day     Temp.  Hum.  Speed  Dir.    Gust   Pres.                    Temp. 
2015   (PST)    F      %     mph   deg.    mph     mb.     in.     W/m2     F   
------------------------------------------------------------------------------
  26   19:40   62.0    43    5.0    31      8.6   994.6    0.00       0    60.9
  26   19:50   63.2    38    5.5    34      7.5   994.6    0.00       0    60.9
  26   20:00   63.6    35    6.9    56      9.0   994.6    0.00       0    60.9
  26   20:10   64.3    32    3.3    79      9.3   994.6    0.00       0    60.9
  26   20:20   63.4    34    3.7    33      8.8   994.6    0.00       0    60.9
  26   20:30   63.8    31    6.9    37      9.8   994.2    0.00       0    60.9
  26   20:40   65.2    28    6.9    41      9.7   994.2    0.00       0    60.8
  26   20:50   64.3    30    1.5   113      4.4   994.6    0.00       0    60.8
  26   21:00   63.3    31    1.2    88      4.1   994.6    0.00       0    60.8
  26   21:10   62.8    36    2.0   169      4.5   994.9    0.00       0    60.7
  26   21:20   62.9    36    2.5   145      5.0   994.9    0.00       0    60.7
  26   21:30   62.5    36    2.9    10      5.3   995.3    0.00       0    60.7
  26   21:40   63.6    33    1.6   190      4.3   995.3    0.00       0    60.7
  26   21:50   63.8    32    2.6   313     10.7   995.3    0.00       0    60.7
  26   22:00   64.8    29    3.2   311     10.4   995.3    0.00       0    60.6
  26   22:10   64.1    31    3.9   334     12.1   995.6    0.00       0    60.6
  26   22:20   63.6    32    4.2   340      8.6   995.6    0.00       0    60.6
  26   22:30   64.2    31    3.2   355      9.4   995.9    0.00       0    60.6
  26   22:40   64.8    29    3.1    33      9.0   995.9    0.00       0    60.5
  26   22:50   65.4    28    3.0   355      8.3   996.3    0.00       0    60.5
  26   23:00   64.6    30    2.5   285      8.2   996.3    0.00       0    60.5
  26   23:10   63.7    34    2.7   344      6.3   996.6    0.00       0    60.5
  26   23:20   63.1    38    2.1   341      6.7   996.6    0.00       0    60.5
  26   23:30   62.5    42    2.4    10      8.0   996.6    0.00       0    60.5
  26   23:40   62.8    41    5.5   312     12.6   997.0    0.00       0    60.4
  26   23:50   63.1    42    4.4   307     12.5   997.0    0.00       0    60.4
  27    0:00   63.0    42    5.8   292     14.8   997.0    0.00       0    60.3
  27    0:10   62.3    51    3.7   280     12.6   997.3    0.00       0    60.3
  27    0:20   61.4    57    4.7   232     12.1   997.3    0.00       0    60.3
  27    0:30   61.2    58    3.5   313     10.9   997.3    0.00       0    60.3
  27    0:40   60.9    58    3.3   318     13.7   997.3    0.00       0    60.2
  27    0:50   61.4    55    5.2   306     13.0   997.3    0.00       0    60.2
  27    1:00   61.5    53    5.3     4     12.6   997.3    0.00       0    60.2
  27    1:10   61.6    52    5.5    16     12.1   997.3    0.00       0    60.2
  27    1:20   61.8    50    3.9    61     10.5   997.3    0.00       0    60.2
  27    1:30   61.7    49    3.6    31      8.4   997.3    0.00       0    60.2
  27    1:40   62.2    45    3.4   357      9.1   997.3    0.00       0    60.2
  27    1:50   62.1    45    3.0   355      9.2   997.6    0.00       0    60.1
  27    2:00   62.4    43    2.3    50      9.5   997.6    0.00       0    60.1
  27    2:10   62.7    41    3.8    49     11.0   998.0    0.00       0    60.1
  27    2:20   62.8    40    3.4    66      8.9   998.0    0.00       0    60.1
  27    2:30   62.5    41    3.3    38      7.3   998.0    0.00       0    60.0
  27    2:40   62.1    44    2.0   340      5.9   998.3    0.00       0    60.0
  27    2:50   61.2    47    5.8    70     14.7   998.0    0.00       0    60.0
  27    3:00   60.5    50    2.9   307     10.0   998.0    0.00       0    60.0
  27    3:10   60.0    51    2.0   291      3.9   998.0    0.00       0    60.0
  27    3:20   59.5    53    2.8   257      9.0   998.0    0.00       0    60.0
  27    3:30   59.1    55    4.8   350     12.3   997.6    0.00       0    60.0
  27    3:40   59.3    54    3.4     5      9.9   997.6    0.00       0    59.9
  27    3:50   59.3    53    4.0    28      9.1   998.0    0.00       0    59.9
  27    4:00   59.5    52    2.0   117      3.9   998.0    0.00       0    59.9
  27    4:10   59.6    52    1.6    11      4.1   998.0    0.00       0    59.9
  27    4:20   59.3    52    2.4   100      4.9   998.0    0.00       0    59.9
  27    4:30   60.0    49    3.7    46      7.2   998.0    0.00       0    59.8
  27    4:40   59.9    49    6.7    38     10.2   998.0    0.00       0    59.8
  27    4:50   60.3    48    7.2    34     11.3   998.0    0.00       0    59.8
  27    5:00   60.5    47    3.6    16      9.1   998.0    0.00       0    59.8
  27    5:10   59.6    51    2.3     1     10.3   998.3    0.00       0    59.8
  27    5:20   58.5    57    2.3   314      8.5   998.3    0.00       0    59.7
  27    5:30   57.8    59    2.5   334      7.2   998.6    0.00       0    59.7
  27    5:40   58.0    57    2.7   351      6.9   998.6    0.00       0    59.7
  27    5:50   58.3    55    2.2    88      5.2   999.0    0.00       0    59.7
  27    6:00   58.1    56    6.2    54      9.1   999.0    0.00       0    59.7
  27    6:10   58.2    55    4.4    68      9.1   999.0    0.00       0    59.6
  27    6:20   58.8    52    5.5    37      9.1   999.0    0.00       0    59.6
  27    6:30   58.9    52    4.9    48      8.7   999.0    0.00       0    59.6
  27    6:40   58.9    52    5.0    24      9.2   999.0    0.00       0    59.6
  27    6:50   59.2    52    2.3   358      6.4   999.3    0.00       0    59.6
  27    7:00   58.4    57    0.4   163      1.8   999.7    0.00       0    59.5
  27    7:10   57.9    58    2.7    37      6.1   999.7    0.00       0    59.5
  27    7:20   57.8    58    4.1    30      5.8   1000.0    0.00       1    59.5
  27    7:30   58.3    55    4.9    57      6.6   1000.3    0.00       2    59.5
  27    7:40   58.5    55    4.2    47      6.6   1000.3    0.00       5    59.5
  27    7:50   58.4    55    5.4    28      7.6   1000.3    0.00       8    59.4
  27    8:00   58.5    54    5.2    27      7.3   1000.7    0.00      18    59.4
  27    8:10   58.5    54    6.2    53      9.6   1000.3    0.00      44    59.4
  27    8:20   58.4    55    7.1    61      9.9   1000.3    0.00      83    59.4
  27    8:30   58.9    54    5.5    38      9.4   1000.3    0.00      96    59.3
  27    8:40   58.7    55    4.3    17      6.6   1000.7    0.00      77    59.3
  27    8:50   59.0    56    2.6    76      5.3   1000.7    0.00      56    59.3
  27    9:00   58.3    60    3.2   119      6.7   1000.7    0.00      42    59.3
  27    9:10   58.9    55    0.8    71      2.4   1000.7    0.00      43    59.3
  27    9:20   58.6    57    2.6    32      6.1   1000.7    0.00      62    59.2
  27    9:30   59.5    53    3.0    73      5.6   1000.7    0.00      89    59.2
  27    9:40   59.8    56    0.8   170      2.9   1000.7    0.00     103    59.2
  27    9:50   59.7    56    1.7    83      3.2   1000.7    0.00     107    59.2
  27   10:00   60.0    57    1.0   323      2.6   1001.0    0.00     129    59.2
  27   10:10   60.0    61    0.6   185      1.7   1001.0    0.00     158    59.2
  27   10:20   60.4    58    0.4   183      1.5   1001.0    0.00     155    59.1
  27   10:30   60.7    59    0.1    34      0.7   1001.4    0.00     154    59.1
  27   10:40   61.2    58    0.1     9      1.1   1001.4    0.00     138    59.1
  27   10:50   61.0    58    0.0     0      0.0   1001.4    0.00     104    59.1
  27   11:00   61.3    55    0.0   186      0.7   1001.4    0.00      80    59.1
  27   11:10   60.8    60    0.4    13      1.6   1001.7    0.00      80    59.1
  27   11:20   60.4    60    1.4    10      2.5   1001.7    0.00      97    59.1
  27   11:30   59.2    68    1.9   199      3.7   1001.7    0.00     109    59.2
  27   11:40   59.0    68    1.1    59      2.5   1001.4    0.00     120    59.2
  27   11:50   58.9    72    3.2   190      5.0   1001.4    0.00     133    59.2
  27   12:00   58.3    75    3.2   191      5.0   1001.4    0.00     156    59.2
  27   12:10   58.2    74    2.3   203      4.2   1001.4    0.00     183    59.2
  27   12:20   58.5    71    1.9   216      3.1   1001.4    0.00     230    59.2
  27   12:30   59.3    68    2.6   210      4.3   1001.0    0.00     265    59.2
  27   12:40   59.6    66    2.2   223      4.3   1001.0    0.00     275    59.2
  27   12:50   60.1    61    2.6   217      3.9   1001.0    0.00     265    59.2
  27   13:00   60.1    60    2.2   229      3.9   1001.0    0.00     242    59.3
  27   13:10   60.1    58    1.7   227      3.4   1000.7    0.00     185    59.3
  27   13:20   59.9    59    2.5   220      4.0   1000.7    0.00     186    59.3
  27   13:30   60.2    60    2.4   237      5.1   1000.7    0.00     197    59.4
  27   13:40   60.3    60    1.9   234      4.9   1000.7    0.00     216    59.4
  27   13:50   60.1    60    2.4   259      6.9   1000.7    0.00     205    59.4
  27   14:00   59.5    62    3.5   227      6.9   1000.7    0.00     160    59.5
  27   14:10   59.1    68    4.2   209      7.2   1001.0    0.00     153    59.5
  27   14:20   58.3    72    2.3   307      5.5   1001.0    0.00     137    59.5
  27   14:30   57.8    70    3.0   309      5.6   1001.4    0.00     122    59.5
  27   14:40   58.0    71    2.4   289      5.9   1001.0    0.00     151    59.5
  27   14:50   58.4    71    3.0   257      6.0   1001.4    0.00     165    59.6
  27   15:00   58.4    72    1.5   312      3.6   1001.0    0.00     164    59.6
  27   15:10   58.7    71    1.9   238      3.9   1001.0    0.00     157    59.6
  27   15:20   58.9    69    2.3   225      3.7   1001.0    0.00     150    59.6
  27   15:30   58.8    68    2.5   236      5.5   1001.4    0.00     148    59.7
  27   15:40   58.8    70    1.4   287      4.2   1001.4    0.00     147    59.7
  27   15:50   58.9    72    1.8   286      5.4   1001.4    0.00     121    59.7
  27   16:00   58.5    75    1.6   235      4.8   1001.4    0.00     100    59.8
  27   16:10   58.4    75    1.0   196      2.1   1001.4    0.00      90    59.8
  27   16:20   58.5    74    0.8   211      2.0   1001.4    0.00      84    59.8
  27   16:30   58.4    75    0.5   237      2.0   1001.0    0.00      73    59.8
  27   16:40   58.3    75    0.3   223      1.2   1001.0    0.00      59    59.9
  27   16:50   58.2    75    0.0     0      0.0   1001.0    0.00      47    59.9
  27   17:00   57.9    75    0.0     0      0.0   1001.0    0.00      36    59.9
  27   17:10   58.0    75    0.1   170      0.9   1001.0    0.00      38    60.0
  27   17:20   58.7    74    0.2   236      1.2   1001.4    0.00      19    60.0
  27   17:30   58.0    74    0.7    44      3.1   1001.4    0.00       7    60.0
  27   17:40   57.1    73    3.2    70      5.0   1001.4    0.00       2    60.0
  27   17:50   57.2    72    2.5    71      4.5   1001.0    0.00       0    60.1
  27   18:00   57.0    71    3.9    73      6.5   1001.0    0.00       0    60.1
  27   18:10   56.7    69    2.0    77      4.2   1001.4    0.00       0    60.1
  27   18:20   56.3    68    4.5    47      6.3   1001.4    0.00       0    60.1
  27   18:30   56.1    66    5.7    37      8.8   1001.4    0.00       0    60.1
  27   18:40   56.9    62    5.8    42      8.0   1001.4    0.00       0    60.1
  27   18:50   56.7    63    3.7    56      5.8   1001.4    0.00       0    60.1
  27   19:00   56.6    62    0.8    72      4.9   1001.7    0.00       0    60.1
  27   19:10   55.9    65    1.5   130      3.1   1001.7    0.00       0    60.1
  27   19:20   55.4    69    1.9   134      3.8   1001.7    0.00       0    60.1
  27   19:30   55.7    70    1.6    63      3.9   1001.7    0.00       0    60.0

Return to Whale Point graphs page.


Western Regional Climate Center,wrcc@dri.edu